sensor_id;sensor_type;location;lat;lon;timestamp;pressure;altitude;pressure_sealevel;temperature;humidity
51321;BME280;38732;49.556;6.286;2022-11-27T00:01:31;100748.25;;;10.56;80.67
51321;BME280;38732;49.556;6.286;2022-11-27T00:04:00;100737.19;;;10.62;80.32
51321;BME280;38732;49.556;6.286;2022-11-27T00:06:29;100732.75;;;10.56;79.91
51321;BME280;38732;49.556;6.286;2022-11-27T00:08:59;100728.56;;;10.63;79.52
51321;BME280;38732;49.556;6.286;2022-11-27T00:11:29;100725.94;;;10.60;79.25
51321;BME280;38732;49.556;6.286;2022-11-27T00:13:58;100713.78;;;10.55;79.95
51321;BME280;38732;49.556;6.286;2022-11-27T00:16:27;100713.56;;;10.45;79.91
51321;BME280;38732;49.556;6.286;2022-11-27T00:18:56;100713.44;;;10.37;80.90
51321;BME280;38732;49.556;6.286;2022-11-27T00:21:26;100717.16;;;10.51;80.36
51321;BME280;38732;49.556;6.286;2022-11-27T00:23:58;100715.41;;;10.50;80.08
51321;BME280;38732;49.556;6.286;2022-11-27T00:26:28;100721.28;;;10.43;79.63
51321;BME280;38732;49.556;6.286;2022-11-27T00:28:56;100722.28;;;10.48;79.27
51321;BME280;38732;49.556;6.286;2022-11-27T00:31:28;100722.22;;;10.47;79.07
51321;BME280;38732;49.556;6.286;2022-11-27T00:33:59;100717.88;;;10.44;79.27
51321;BME280;38732;49.556;6.286;2022-11-27T00:36:29;100718.75;;;10.45;79.41
51321;BME280;38732;49.556;6.286;2022-11-27T00:38:58;100728.16;;;10.41;79.17
51321;BME280;38732;49.556;6.286;2022-11-27T00:41:28;100732.84;;;10.21;81.32
51321;BME280;38732;49.556;6.286;2022-11-27T00:43:56;100731.19;;;10.25;80.16
51321;BME280;38732;49.556;6.286;2022-11-27T00:46:27;100731.44;;;10.34;79.78
51321;BME280;38732;49.556;6.286;2022-11-27T00:49:00;100724.31;;;10.24;79.11
51321;BME280;38732;49.556;6.286;2022-11-27T00:51:29;100722.72;;;10.29;80.14
51321;BME280;38732;49.556;6.286;2022-11-27T00:53:57;100729.38;;;10.21;80.73
51321;BME280;38732;49.556;6.286;2022-11-27T00:56:29;100728.50;;;10.20;80.09
51321;BME280;38732;49.556;6.286;2022-11-27T00:58:57;100720.88;;;10.25;79.55
51321;BME280;38732;49.556;6.286;2022-11-27T01:01:32;100721.50;;;10.14;80.75
51321;BME280;38732;49.556;6.286;2022-11-27T01:04:02;100720.72;;;10.17;79.70
51321;BME280;38732;49.556;6.286;2022-11-27T01:06:31;100726.69;;;10.14;80.06
51321;BME280;38732;49.556;6.286;2022-11-27T01:08:59;100721.56;;;10.16;80.35
51321;BME280;38732;49.556;6.286;2022-11-27T01:11:29;100717.16;;;10.12;80.23
51321;BME280;38732;49.556;6.286;2022-11-27T01:14:00;100714.63;;;10.13;79.45
51321;BME280;38732;49.556;6.286;2022-11-27T01:16:30;100718.81;;;10.10;78.72
51321;BME280;38732;49.556;6.286;2022-11-27T01:19:00;100720.31;;;10.00;79.53
51321;BME280;38732;49.556;6.286;2022-11-27T01:21:31;100719.28;;;9.92;79.84
51321;BME280;38732;49.556;6.286;2022-11-27T01:24:01;100723.72;;;9.98;80.30
51321;BME280;38732;49.556;6.286;2022-11-27T01:26:30;100719.06;;;9.81;80.91
51321;BME280;38732;49.556;6.286;2022-11-27T01:28:59;100714.06;;;9.89;80.97
51321;BME280;38732;49.556;6.286;2022-11-27T01:31:29;100711.28;;;9.80;81.02
51321;BME280;38732;49.556;6.286;2022-11-27T01:34:00;100705.34;;;9.84;81.40
51321;BME280;38732;49.556;6.286;2022-11-27T01:36:30;100701.69;;;9.74;82.42
51321;BME280;38732;49.556;6.286;2022-11-27T01:38:59;100695.09;;;9.87;81.17
51321;BME280;38732;49.556;6.286;2022-11-27T01:41:30;100688.19;;;9.86;80.76
51321;BME280;38732;49.556;6.286;2022-11-27T01:44:45;100689.03;;;9.85;81.23
51321;BME280;38732;49.556;6.286;2022-11-27T01:49:37;100677.69;;;9.77;81.38
51321;BME280;38732;49.556;6.286;2022-11-27T01:52:11;100677.69;;;9.77;81.51
51321;BME280;38732;49.556;6.286;2022-11-27T01:54:52;100675.78;;;9.69;82.39
51321;BME280;38732;49.556;6.286;2022-11-27T01:57:26;100674.06;;;9.68;81.19
51321;BME280;38732;49.556;6.286;2022-11-27T01:59:58;100683.47;;;9.68;80.94
51321;BME280;38732;49.556;6.286;2022-11-27T02:02:27;100673.84;;;9.59;81.38
51321;BME280;38732;49.556;6.286;2022-11-27T02:04:55;100683.25;;;9.57;80.66
51321;BME280;38732;49.556;6.286;2022-11-27T02:07:24;100694.47;;;9.59;81.01
51321;BME280;38732;49.556;6.286;2022-11-27T02:09:52;100690.91;;;9.56;80.88
51321;BME280;38732;49.556;6.286;2022-11-27T02:12:26;100696.84;;;9.52;82.21
51321;BME280;38732;49.556;6.286;2022-11-27T02:15:10;100691.59;;;9.47;81.39
51321;BME280;38732;49.556;6.286;2022-11-27T02:18:02;100687.25;;;9.46;81.98
51321;BME280;38732;49.556;6.286;2022-11-27T02:20:47;100682.59;;;8.64;85.18
51321;BME280;38732;49.556;6.286;2022-11-27T02:29:10;100675.78;;;9.33;82.13
51321;BME280;38732;49.556;6.286;2022-11-27T02:34:27;100663.50;;;9.23;81.46
51321;BME280;38732;49.556;6.286;2022-11-27T02:37:30;100657.66;;;9.28;81.65
51321;BME280;38732;49.556;6.286;2022-11-27T02:40:05;100649.06;;;9.29;81.22
51321;BME280;38732;49.556;6.286;2022-11-27T02:43:29;100640.38;;;9.26;80.83
51321;BME280;38732;49.556;6.286;2022-11-27T02:45:35;100643.00;;;9.27;82.80
51321;BME280;38732;49.556;6.286;2022-11-27T02:48:07;100643.88;;;9.28;81.94
51321;BME280;38732;49.556;6.286;2022-11-27T02:50:37;100646.97;;;9.15;82.12
51321;BME280;38732;49.556;6.286;2022-11-27T02:53:11;100636.13;;;9.26;82.44
51321;BME280;38732;49.556;6.286;2022-11-27T02:55:41;100635.09;;;9.20;81.97
51321;BME280;38732;49.556;6.286;2022-11-27T02:58:15;100628.19;;;9.19;82.75
51321;BME280;38732;49.556;6.286;2022-11-27T03:00:45;100623.25;;;9.28;82.54
51321;BME280;38732;49.556;6.286;2022-11-27T03:03:17;100617.97;;;9.23;82.96
51321;BME280;38732;49.556;6.286;2022-11-27T03:05:49;100610.41;;;9.29;82.40
51321;BME280;38732;49.556;6.286;2022-11-27T03:08:32;100613.78;;;9.27;82.48
51321;BME280;38732;49.556;6.286;2022-11-27T03:11:06;100617.22;;;9.27;81.84
51321;BME280;38732;49.556;6.286;2022-11-27T03:13:38;100613.66;;;9.22;82.11
51321;BME280;38732;49.556;6.286;2022-11-27T03:18:55;100601.66;;;9.23;81.69
51321;BME280;38732;49.556;6.286;2022-11-27T03:21:39;100595.50;;;9.16;81.92
51321;BME280;38732;49.556;6.286;2022-11-27T03:24:09;100594.84;;;9.25;82.68
51321;BME280;38732;49.556;6.286;2022-11-27T03:26:39;100586.19;;;9.23;82.87
51321;BME280;38732;49.556;6.286;2022-11-27T03:29:53;100587.91;;;9.22;81.84
51321;BME280;38732;49.556;6.286;2022-11-27T03:32:25;100591.22;;;9.17;82.18
51321;BME280;38732;49.556;6.286;2022-11-27T03:34:54;100590.41;;;9.19;82.20
51321;BME280;38732;49.556;6.286;2022-11-27T03:37:23;100588.22;;;9.00;81.69
51321;BME280;38732;49.556;6.286;2022-11-27T03:39:52;100571.34;;;9.11;81.75
51321;BME280;38732;49.556;6.286;2022-11-27T03:45:26;100561.03;;;9.13;82.05
51321;BME280;38732;49.556;6.286;2022-11-27T03:51:04;100573.50;;;8.96;83.20
51321;BME280;38732;49.556;6.286;2022-11-27T03:56:35;100591.06;;;9.11;82.08
51321;BME280;38732;49.556;6.286;2022-11-27T04:01:40;100602.81;;;8.99;81.30
51321;BME280;38732;49.556;6.286;2022-11-27T04:04:08;100605.81;;;8.81;83.56
51321;BME280;38732;49.556;6.286;2022-11-27T04:06:37;100593.31;;;8.98;81.66
51321;BME280;38732;49.556;6.286;2022-11-27T04:09:05;100597.91;;;9.09;80.91
51321;BME280;38732;49.556;6.286;2022-11-27T04:11:33;100608.84;;;9.00;81.72
51321;BME280;38732;49.556;6.286;2022-11-27T04:14:01;100607.31;;;9.08;81.52
51321;BME280;38732;49.556;6.286;2022-11-27T04:16:30;100587.59;;;9.10;81.71
51321;BME280;38732;49.556;6.286;2022-11-27T04:18:58;100588.28;;;9.03;82.05
51321;BME280;38732;49.556;6.286;2022-11-27T04:21:26;100577.31;;;9.10;81.41
51321;BME280;38732;49.556;6.286;2022-11-27T04:23:54;100573.06;;;9.12;81.88
51321;BME280;38732;49.556;6.286;2022-11-27T04:26:22;100563.66;;;9.14;81.69
51321;BME280;38732;49.556;6.286;2022-11-27T04:28:51;100560.97;;;9.10;81.42
51321;BME280;38732;49.556;6.286;2022-11-27T04:31:19;100554.28;;;9.16;81.56
51321;BME280;38732;49.556;6.286;2022-11-27T04:33:47;100543.00;;;9.11;82.31
51321;BME280;38732;49.556;6.286;2022-11-27T04:36:15;100536.94;;;9.09;82.08
51321;BME280;38732;49.556;6.286;2022-11-27T04:38:43;100525.53;;;8.99;81.69
51321;BME280;38732;49.556;6.286;2022-11-27T04:41:12;100523.97;;;9.06;82.96
51321;BME280;38732;49.556;6.286;2022-11-27T04:43:40;100526.50;;;9.04;82.06
51321;BME280;38732;49.556;6.286;2022-11-27T04:46:08;100523.19;;;9.10;81.92
51321;BME280;38732;49.556;6.286;2022-11-27T04:48:36;100528.28;;;9.07;81.84
51321;BME280;38732;49.556;6.286;2022-11-27T04:51:04;100523.25;;;9.13;81.72
51321;BME280;38732;49.556;6.286;2022-11-27T04:53:33;100541.22;;;9.10;81.86
51321;BME280;38732;49.556;6.286;2022-11-27T04:56:01;100547.13;;;9.06;81.84
51321;BME280;38732;49.556;6.286;2022-11-27T04:58:29;100550.63;;;9.06;81.56
51321;BME280;38732;49.556;6.286;2022-11-27T05:00:57;100543.38;;;8.92;81.51
51321;BME280;38732;49.556;6.286;2022-11-27T05:03:25;100540.75;;;8.90;80.43
51321;BME280;38732;49.556;6.286;2022-11-27T05:05:57;100544.47;;;9.01;81.02
51321;BME280;38732;49.556;6.286;2022-11-27T05:08:29;100551.38;;;9.02;81.56
51321;BME280;38732;49.556;6.286;2022-11-27T05:11:06;100546.38;;;9.09;81.83
51321;BME280;38732;49.556;6.286;2022-11-27T05:13:35;100543.00;;;9.13;82.91
51321;BME280;38732;49.556;6.286;2022-11-27T05:16:03;100547.31;;;9.12;81.98
51321;BME280;38732;49.556;6.286;2022-11-27T05:18:32;100552.44;;;9.12;81.69
51321;BME280;38732;49.556;6.286;2022-11-27T05:21:04;100556.75;;;9.13;81.12
51321;BME280;38732;49.556;6.286;2022-11-27T05:23:33;100550.81;;;9.16;80.63
51321;BME280;38732;49.556;6.286;2022-11-27T05:26:01;100544.03;;;9.19;81.47
51321;BME280;38732;49.556;6.286;2022-11-27T05:28:29;100543.16;;;9.19;81.04
51321;BME280;38732;49.556;6.286;2022-11-27T05:30:58;100534.53;;;9.17;81.31
51321;BME280;38732;49.556;6.286;2022-11-27T05:33:26;100522.47;;;9.16;80.79
51321;BME280;38732;49.556;6.286;2022-11-27T05:35:54;100517.41;;;9.19;81.36
51321;BME280;38732;49.556;6.286;2022-11-27T05:38:22;100507.81;;;9.13;80.90
51321;BME280;38732;49.556;6.286;2022-11-27T05:40:50;100504.44;;;9.16;81.27
51321;BME280;38732;49.556;6.286;2022-11-27T05:43:19;100512.25;;;9.19;82.20
51321;BME280;38732;49.556;6.286;2022-11-27T05:45:47;100508.75;;;9.17;82.41
51321;BME280;38732;49.556;6.286;2022-11-27T05:48:15;100510.50;;;9.18;82.51
51321;BME280;38732;49.556;6.286;2022-11-27T05:50:43;100500.16;;;9.16;82.08
51321;BME280;38732;49.556;6.286;2022-11-27T05:53:11;100491.66;;;9.20;81.32
51321;BME280;38732;49.556;6.286;2022-11-27T05:55:40;100494.22;;;9.20;81.91
51321;BME280;38732;49.556;6.286;2022-11-27T05:58:08;100493.81;;;9.02;83.55
51321;BME280;38732;49.556;6.286;2022-11-27T06:00:36;100501.78;;;9.13;82.99
51321;BME280;38732;49.556;6.286;2022-11-27T06:03:04;100499.38;;;9.19;82.07
51321;BME280;38732;49.556;6.286;2022-11-27T06:05:32;100492.56;;;9.22;81.53
51321;BME280;38732;49.556;6.286;2022-11-27T06:08:01;100487.31;;;9.18;81.92
51321;BME280;38732;49.556;6.286;2022-11-27T06:10:29;100479.72;;;9.25;82.32
51321;BME280;38732;49.556;6.286;2022-11-27T06:12:57;100483.97;;;9.23;81.47
51321;BME280;38732;49.556;6.286;2022-11-27T06:15:25;100499.44;;;9.23;81.83
51321;BME280;38732;49.556;6.286;2022-11-27T06:17:54;100506.25;;;9.20;81.76
51321;BME280;38732;49.556;6.286;2022-11-27T06:20:22;100498.56;;;9.21;81.27
51321;BME280;38732;49.556;6.286;2022-11-27T06:22:51;100496.84;;;9.22;81.17
51321;BME280;38732;49.556;6.286;2022-11-27T06:25:19;100492.56;;;9.22;81.07
51321;BME280;38732;49.556;6.286;2022-11-27T06:27:47;100487.50;;;9.27;81.80
51321;BME280;38732;49.556;6.286;2022-11-27T06:30:16;100471.09;;;9.22;80.61
51321;BME280;38732;49.556;6.286;2022-11-27T06:32:44;100459.81;;;9.18;80.13
51321;BME280;38732;49.556;6.286;2022-11-27T06:35:13;100468.28;;;9.13;81.24
51321;BME280;38732;49.556;6.286;2022-11-27T06:37:41;100458.03;;;9.14;81.00
51321;BME280;38732;49.556;6.286;2022-11-27T06:40:09;100445.16;;;9.16;81.39
51321;BME280;38732;49.556;6.286;2022-11-27T06:42:38;100445.25;;;9.19;81.35
51321;BME280;38732;49.556;6.286;2022-11-27T06:45:06;100447.03;;;9.21;81.64
51321;BME280;38732;49.556;6.286;2022-11-27T06:47:34;100444.34;;;9.18;80.84
51321;BME280;38732;49.556;6.286;2022-11-27T06:50:03;100443.13;;;9.01;82.43
51321;BME280;38732;49.556;6.286;2022-11-27T06:52:32;100445.91;;;9.10;82.58
51321;BME280;38732;49.556;6.286;2022-11-27T06:55:00;100446.13;;;9.21;81.51
51321;BME280;38732;49.556;6.286;2022-11-27T06:57:28;100435.81;;;9.21;80.63
51321;BME280;38732;49.556;6.286;2022-11-27T06:59:56;100436.69;;;9.20;81.24
51321;BME280;38732;49.556;6.286;2022-11-27T07:02:24;100441.81;;;9.20;81.38
51321;BME280;38732;49.556;6.286;2022-11-27T07:04:52;100441.78;;;9.18;81.80
51321;BME280;38732;49.556;6.286;2022-11-27T07:07:21;100430.72;;;9.22;81.28
51321;BME280;38732;49.556;6.286;2022-11-27T07:09:49;100417.94;;;9.27;81.23
51321;BME280;38732;49.556;6.286;2022-11-27T07:12:17;100412.78;;;9.27;81.43
51321;BME280;38732;49.556;6.286;2022-11-27T07:14:45;100414.50;;;9.28;81.08
51321;BME280;38732;49.556;6.286;2022-11-27T07:17:13;100410.97;;;9.23;81.45
51321;BME280;38732;49.556;6.286;2022-11-27T07:19:42;100417.88;;;9.24;80.89
51321;BME280;38732;49.556;6.286;2022-11-27T07:22:10;100421.28;;;9.23;81.68
51321;BME280;38732;49.556;6.286;2022-11-27T07:24:38;100411.94;;;9.28;81.26
51321;BME280;38732;49.556;6.286;2022-11-27T07:27:06;100439.28;;;9.21;81.01
51321;BME280;38732;49.556;6.286;2022-11-27T07:29:35;100431.03;;;8.97;83.20
51321;BME280;38732;49.556;6.286;2022-11-27T07:32:03;100423.69;;;9.15;80.59
51321;BME280;38732;49.556;6.286;2022-11-27T07:34:31;100422.97;;;9.22;80.55
51321;BME280;38732;49.556;6.286;2022-11-27T07:36:59;100419.50;;;9.20;79.78
51321;BME280;38732;49.556;6.286;2022-11-27T07:39:27;100432.28;;;9.14;81.08
51321;BME280;38732;49.556;6.286;2022-11-27T07:41:56;100431.53;;;9.20;80.49
51321;BME280;38732;49.556;6.286;2022-11-27T07:44:24;100424.75;;;9.25;80.39
51321;BME280;38732;49.556;6.286;2022-11-27T07:46:52;100419.66;;;9.28;80.94
51321;BME280;38732;49.556;6.286;2022-11-27T07:49:20;100417.31;;;8.60;85.28
51321;BME280;38732;49.556;6.286;2022-11-27T07:51:48;100415.09;;;8.75;83.01
51321;BME280;38732;49.556;6.286;2022-11-27T07:54:17;100417.72;;;8.78;83.85
51321;BME280;38732;49.556;6.286;2022-11-27T07:56:45;100417.47;;;9.05;81.37
51321;BME280;38732;49.556;6.286;2022-11-27T07:59:13;100422.06;;;9.19;80.55
51321;BME280;38732;49.556;6.286;2022-11-27T08:01:41;100418.03;;;9.32;80.34
51321;BME280;38732;49.556;6.286;2022-11-27T08:04:09;100409.44;;;9.33;80.54
51321;BME280;38732;49.556;6.286;2022-11-27T08:06:38;100402.66;;;9.36;80.33
51321;BME280;38732;49.556;6.286;2022-11-27T08:09:06;100391.56;;;9.40;80.48
51321;BME280;38732;49.556;6.286;2022-11-27T08:11:34;100391.69;;;9.46;79.36
51321;BME280;38732;49.556;6.286;2022-11-27T08:14:04;100389.94;;;9.45;79.24
51321;BME280;38732;49.556;6.286;2022-11-27T08:16:34;100389.84;;;9.41;79.03
51321;BME280;38732;49.556;6.286;2022-11-27T08:19:02;100399.03;;;9.26;79.63
51321;BME280;38732;49.556;6.286;2022-11-27T08:21:31;100404.19;;;9.26;79.85
51321;BME280;38732;49.556;6.286;2022-11-27T08:23:59;100396.81;;;9.45;78.21
51321;BME280;38732;49.556;6.286;2022-11-27T08:26:28;100390.03;;;9.50;77.89
51321;BME280;38732;49.556;6.286;2022-11-27T08:28:56;100394.41;;;9.54;78.65
51321;BME280;38732;49.556;6.286;2022-11-27T08:31:25;100393.59;;;9.57;78.00
51321;BME280;38732;49.556;6.286;2022-11-27T08:33:53;100384.13;;;9.56;78.76
51321;BME280;38732;49.556;6.286;2022-11-27T08:36:24;100382.34;;;9.53;77.56
51321;BME280;38732;49.556;6.286;2022-11-27T08:38:53;100390.16;;;9.58;78.13
51321;BME280;38732;49.556;6.286;2022-11-27T08:41:22;100398.03;;;9.64;77.80
51321;BME280;38732;49.556;6.286;2022-11-27T08:43:50;100388.53;;;9.61;77.62
51321;BME280;38732;49.556;6.286;2022-11-27T08:46:18;100385.25;;;9.68;77.47
51321;BME280;38732;49.556;6.286;2022-11-27T08:48:47;100386.03;;;9.66;77.60
51321;BME280;38732;49.556;6.286;2022-11-27T08:51:15;100385.16;;;9.65;76.84
51321;BME280;38732;49.556;6.286;2022-11-27T08:53:43;100370.69;;;9.72;77.43
51321;BME280;38732;49.556;6.286;2022-11-27T08:56:20;100380.84;;;9.64;77.15
51321;BME280;38732;49.556;6.286;2022-11-27T08:58:49;100380.94;;;9.70;77.15
51321;BME280;38732;49.556;6.286;2022-11-27T09:01:26;100388.72;;;9.72;76.53
51321;BME280;38732;49.556;6.286;2022-11-27T09:03:55;100393.94;;;9.74;76.29
51321;BME280;38732;49.556;6.286;2022-11-27T09:06:26;100382.81;;;9.76;76.51
51321;BME280;38732;49.556;6.286;2022-11-27T09:08:59;100376.50;;;9.62;76.75
51321;BME280;38732;49.556;6.286;2022-11-27T09:11:28;100362.09;;;9.73;76.78
51321;BME280;38732;49.556;6.286;2022-11-27T09:13:58;100360.09;;;9.58;77.04
51321;BME280;38732;49.556;6.286;2022-11-27T09:16:26;100346.47;;;9.64;76.93
51321;BME280;38732;49.556;6.286;2022-11-27T09:18:56;100351.84;;;9.29;79.01
51321;BME280;38732;49.556;6.286;2022-11-27T09:21:26;100354.06;;;9.56;78.06
51321;BME280;38732;49.556;6.286;2022-11-27T09:23:57;100357.75;;;9.70;77.27
51321;BME280;38732;49.556;6.286;2022-11-27T09:26:27;100347.56;;;9.77;75.83
51321;BME280;38732;49.556;6.286;2022-11-27T09:28:57;100358.00;;;9.84;76.64
51321;BME280;38732;49.556;6.286;2022-11-27T09:31:25;100350.28;;;9.86;76.17
51321;BME280;38732;49.556;6.286;2022-11-27T09:33:54;100355.41;;;9.84;75.01
51321;BME280;38732;49.556;6.286;2022-11-27T09:36:24;100341.75;;;9.90;74.50
51321;BME280;38732;49.556;6.286;2022-11-27T09:38:52;100350.13;;;9.78;76.11
51321;BME280;38732;49.556;6.286;2022-11-27T09:41:51;100338.34;;;9.91;75.53
51321;BME280;38732;49.556;6.286;2022-11-27T09:46:58;100329.91;;;9.51;77.25
51321;BME280;38732;49.556;6.286;2022-11-27T09:50:00;100330.91;;;9.61;76.04
51321;BME280;38732;49.556;6.286;2022-11-27T09:52:42;100326.22;;;9.87;75.20
51321;BME280;38732;49.556;6.286;2022-11-27T09:55:30;100334.84;;;9.87;75.85
51321;BME280;38732;49.556;6.286;2022-11-27T09:58:10;100334.19;;;9.99;75.38
51321;BME280;38732;49.556;6.286;2022-11-27T10:00:45;100339.34;;;9.99;75.07
51321;BME280;38732;49.556;6.286;2022-11-27T10:03:16;100330.84;;;10.06;75.83
51321;BME280;38732;49.556;6.286;2022-11-27T10:08:58;100316.81;;;9.89;76.08
51321;BME280;38732;49.556;6.286;2022-11-27T10:12:05;100312.88;;;10.12;75.08
51321;BME280;38732;49.556;6.286;2022-11-27T10:15:00;100313.78;;;10.14;74.28
51321;BME280;38732;49.556;6.286;2022-11-27T10:17:33;100311.97;;;10.10;75.59
51321;BME280;38732;49.556;6.286;2022-11-27T10:25:20;100299.41;;;10.30;73.41
51321;BME280;38732;49.556;6.286;2022-11-27T10:31:04;100292.53;;;10.29;74.69
51321;BME280;38732;49.556;6.286;2022-11-27T10:33:42;100279.41;;;10.17;74.37
51321;BME280;38732;49.556;6.286;2022-11-27T10:36:34;100276.84;;;10.19;75.30
51321;BME280;38732;49.556;6.286;2022-11-27T10:39:08;100274.28;;;9.65;77.28
51321;BME280;38732;49.556;6.286;2022-11-27T10:41:45;100275.00;;;10.10;76.38
51321;BME280;38732;49.556;6.286;2022-11-27T10:44:26;100262.72;;;10.51;73.36
51321;BME280;38732;49.556;6.286;2022-11-27T10:47:01;100263.53;;;10.50;72.57
51321;BME280;38732;49.556;6.286;2022-11-27T10:49:30;100253.19;;;10.47;72.91
51321;BME280;38732;49.556;6.286;2022-11-27T10:51:59;100248.22;;;10.64;71.76
51321;BME280;38732;49.556;6.286;2022-11-27T10:54:34;100249.22;;;10.75;71.94
51321;BME280;38732;49.556;6.286;2022-11-27T11:00:07;100237.00;;;10.62;71.33
51321;BME280;38732;49.556;6.286;2022-11-27T11:02:37;100239.03;;;10.88;72.13
51321;BME280;38732;49.556;6.286;2022-11-27T11:13:31;100214.50;;;11.33;70.27
51321;BME280;38732;49.556;6.286;2022-11-27T11:18:44;100200.03;;;11.58;69.78
51321;BME280;38732;49.556;6.286;2022-11-27T11:21:16;100195.69;;;11.49;67.68
51321;BME280;38732;49.556;6.286;2022-11-27T11:24:01;100181.13;;;11.62;67.49
51321;BME280;38732;49.556;6.286;2022-11-27T11:26:33;100177.66;;;11.63;68.90
51321;BME280;38732;49.556;6.286;2022-11-27T11:29:13;100181.00;;;11.47;68.18
51321;BME280;38732;49.556;6.286;2022-11-27T11:31:48;100174.19;;;11.59;67.69
51321;BME280;38732;49.556;6.286;2022-11-27T11:34:24;100154.47;;;11.74;66.77
51321;BME280;38732;49.556;6.286;2022-11-27T11:36:59;100150.91;;;11.58;69.04
51321;BME280;38732;49.556;6.286;2022-11-27T11:39:43;100141.47;;;11.61;67.11
51321;BME280;38732;49.556;6.286;2022-11-27T11:42:20;100128.56;;;11.66;69.11
51321;BME280;38732;49.556;6.286;2022-11-27T11:44:51;100120.75;;;11.63;67.26
51321;BME280;38732;49.556;6.286;2022-11-27T11:47:22;100111.25;;;11.57;68.65
51321;BME280;38732;49.556;6.286;2022-11-27T11:49:51;100102.56;;;11.46;67.35
51321;BME280;38732;49.556;6.286;2022-11-27T11:52:45;100083.59;;;11.45;68.94
51321;BME280;38732;49.556;6.286;2022-11-27T11:55:23;100082.81;;;11.57;67.58
51321;BME280;38732;49.556;6.286;2022-11-27T11:58:20;100081.00;;;11.45;69.05
51321;BME280;38732;49.556;6.286;2022-11-27T12:01:21;100071.53;;;11.44;70.17
51321;BME280;38732;49.556;6.286;2022-11-27T12:04:04;100073.13;;;11.24;69.90
51321;BME280;38732;49.556;6.286;2022-11-27T12:12:07;100075.69;;;11.24;69.75
51321;BME280;38732;49.556;6.286;2022-11-27T12:14:46;100082.84;;;11.63;68.07
51321;BME280;38732;49.556;6.286;2022-11-27T12:32:23;100031.28;;;11.91;66.41
51321;BME280;38732;49.556;6.286;2022-11-27T12:43:32;100009.59;;;11.77;68.70
51321;BME280;38732;49.556;6.286;2022-11-27T12:46:33;99997.53;;;11.71;68.02
51321;BME280;38732;49.556;6.286;2022-11-27T12:49:20;99981.13;;;11.69;68.41
51321;BME280;38732;49.556;6.286;2022-11-27T12:51:55;99974.16;;;11.53;68.18
51321;BME280;38732;49.556;6.286;2022-11-27T12:54:39;99969.88;;;11.65;68.56
51321;BME280;38732;49.556;6.286;2022-11-27T12:57:19;99966.44;;;11.68;69.06
51321;BME280;38732;49.556;6.286;2022-11-27T13:02:27;99952.56;;;11.44;68.77
51321;BME280;38732;49.556;6.286;2022-11-27T13:05:03;99939.56;;;11.21;70.62
51321;BME280;38732;49.556;6.286;2022-11-27T13:10:17;99932.81;;;11.68;69.73
51321;BME280;38732;49.556;6.286;2022-11-27T13:15:30;99930.28;;;11.85;66.63
51321;BME280;38732;49.556;6.286;2022-11-27T13:18:17;99932.00;;;11.80;66.41
51321;BME280;38732;49.556;6.286;2022-11-27T13:20:48;99934.59;;;11.84;69.00
51321;BME280;38732;49.556;6.286;2022-11-27T13:23:19;99927.69;;;11.79;69.26
51321;BME280;38732;49.556;6.286;2022-11-27T13:25:52;99926.75;;;11.49;68.29
51321;BME280;38732;49.556;6.286;2022-11-27T13:28:38;99919.91;;;11.66;69.37
51321;BME280;38732;49.556;6.286;2022-11-27T13:31:18;99920.72;;;11.58;68.60
51321;BME280;38732;49.556;6.286;2022-11-27T13:33:48;99916.44;;;11.58;69.55
51321;BME280;38732;49.556;6.286;2022-11-27T13:36:26;99916.44;;;11.61;67.91
51321;BME280;38732;49.556;6.286;2022-11-27T13:38:57;99921.63;;;11.64;69.10
51321;BME280;38732;49.556;6.286;2022-11-27T13:41:37;99923.38;;;11.73;68.67
51321;BME280;38732;49.556;6.286;2022-11-27T13:44:23;99923.38;;;11.75;68.79
51321;BME280;38732;49.556;6.286;2022-11-27T13:46:57;99917.31;;;11.73;68.22
51321;BME280;38732;49.556;6.286;2022-11-27T13:49:29;99919.94;;;11.76;68.49
51321;BME280;38732;49.556;6.286;2022-11-27T13:52:07;99909.56;;;11.77;69.17
51321;BME280;38732;49.556;6.286;2022-11-27T13:54:37;99906.13;;;11.80;70.15
51321;BME280;38732;49.556;6.286;2022-11-27T13:57:16;99900.97;;;11.84;69.89
51321;BME280;38732;49.556;6.286;2022-11-27T13:59:59;99894.91;;;11.85;68.75
51321;BME280;38732;49.556;6.286;2022-11-27T14:05:17;99910.50;;;11.89;69.32
51321;BME280;38732;49.556;6.286;2022-11-27T14:07:53;99913.03;;;11.85;69.44
51321;BME280;38732;49.556;6.286;2022-11-27T14:10:26;99910.44;;;11.82;68.75
51321;BME280;38732;49.556;6.286;2022-11-27T14:13:02;99913.91;;;11.86;69.54
51321;BME280;38732;49.556;6.286;2022-11-27T14:15:37;99916.50;;;11.84;68.99
51321;BME280;38732;49.556;6.286;2022-11-27T14:18:18;99909.66;;;11.91;69.28
51321;BME280;38732;49.556;6.286;2022-11-27T14:20:53;99913.94;;;11.89;69.18
51321;BME280;38732;49.556;6.286;2022-11-27T14:23:34;99908.75;;;11.87;69.80
51321;BME280;38732;49.556;6.286;2022-11-27T14:26:05;99905.31;;;11.87;70.11
51321;BME280;38732;49.556;6.286;2022-11-27T14:28:35;99905.28;;;11.84;72.02
51321;BME280;38732;49.556;6.286;2022-11-27T14:31:04;99907.84;;;11.85;70.81
51321;BME280;38732;49.556;6.286;2022-11-27T14:33:33;99900.09;;;11.85;70.85
51321;BME280;38732;49.556;6.286;2022-11-27T14:36:06;99894.09;;;11.86;72.45
51321;BME280;38732;49.556;6.286;2022-11-27T14:38:35;99905.25;;;11.85;72.29
51321;BME280;38732;49.556;6.286;2022-11-27T14:41:23;99906.97;;;11.80;71.53
51321;BME280;38732;49.556;6.286;2022-11-27T14:44:03;99900.94;;;11.80;71.60
51321;BME280;38732;49.556;6.286;2022-11-27T14:46:34;99891.47;;;11.77;70.71
51321;BME280;38732;49.556;6.286;2022-11-27T14:49:03;99892.34;;;11.76;72.62
51321;BME280;38732;49.556;6.286;2022-11-27T14:51:34;99878.53;;;11.80;72.07
51321;BME280;38732;49.556;6.286;2022-11-27T14:54:11;99869.03;;;11.78;71.40
51321;BME280;38732;49.556;6.286;2022-11-27T14:56:41;99863.88;;;11.76;72.29
51321;BME280;38732;49.556;6.286;2022-11-27T14:59:14;99858.69;;;11.75;72.41